createdAt,value
2023-04-23T00:00:59.917Z,0
2023-04-23T00:02:02.651Z,0
2023-04-23T00:03:00.344Z,0
2023-04-23T00:04:01.346Z,0
2023-04-23T00:05:01.610Z,0
2023-04-23T00:06:01.053Z,0
2023-04-23T00:07:01.823Z,0
2023-04-23T00:08:02.302Z,0
2023-04-23T00:09:03.591Z,0
2023-04-23T00:10:04.290Z,0
2023-04-23T00:11:05.193Z,0
2023-04-23T00:12:05.454Z,0
2023-04-23T00:13:09.934Z,0
2023-04-23T00:14:06.752Z,0
2023-04-23T00:15:07.698Z,0
2023-04-23T00:16:08.428Z,0
2023-04-23T00:17:09.364Z,0
2023-04-23T00:18:08.970Z,0
2023-04-23T00:19:09.539Z,0
2023-04-23T00:20:09.848Z,0
2023-04-23T00:21:10.535Z,0
2023-04-23T00:22:11.628Z,0
2023-04-23T00:23:11.342Z,0
2023-04-23T00:24:11.634Z,0
2023-04-23T00:25:13.138Z,0
2023-04-23T00:26:14.049Z,0
2023-04-23T00:27:14.746Z,0
2023-04-23T00:29:15.753Z,0
2023-04-23T00:30:16.252Z,0
2023-04-23T00:31:17.219Z,0
2023-04-23T00:32:18.048Z,0
2023-04-23T00:33:18.107Z,0
2023-04-23T00:34:18.864Z,0
2023-04-23T00:35:19.368Z,0
2023-04-23T00:36:19.665Z,0
2023-04-23T00:37:20.373Z,0
2023-04-23T00:38:20.888Z,0
2023-04-23T00:39:21.419Z,0
2023-04-23T00:40:21.918Z,0
2023-04-23T00:41:22.239Z,0
2023-04-23T00:42:22.606Z,0
2023-04-23T00:43:23.318Z,0
2023-04-23T00:44:24.048Z,0
2023-04-23T00:45:24.994Z,0
2023-04-23T00:46:25.667Z,0
2023-04-23T00:47:26.672Z,0
2023-04-23T00:48:27.399Z,0
2023-04-23T00:49:27.969Z,0
2023-04-23T00:50:28.473Z,0
2023-04-23T00:51:29.421Z,0
2023-04-23T00:52:29.812Z,0
2023-04-23T00:53:30.310Z,0
2023-04-23T00:54:30.828Z,0
2023-04-23T00:55:31.106Z,0
2023-04-23T00:56:32.208Z,0
2023-04-23T00:57:32.711Z,0
2023-04-23T00:58:33.442Z,0
2023-04-23T00:59:33.969Z,0
2023-04-23T01:00:34.668Z,0
2023-04-23T01:01:35.649Z,0
2023-04-23T01:02:37.229Z,0
2023-04-23T01:03:37.808Z,0
2023-04-23T01:04:37.699Z,0
2023-04-23T01:05:38.399Z,0
2023-04-23T01:06:38.890Z,0
2023-04-23T01:07:40.060Z,0
2023-04-23T01:08:40.169Z,0
2023-04-23T01:09:40.674Z,0
2023-04-23T01:10:41.557Z,0
2023-04-23T01:11:42.090Z,0
2023-04-23T01:12:42.511Z,0
2023-04-23T01:13:43.466Z,0
2023-04-23T01:14:44.524Z,0
2023-04-23T01:15:45.452Z,0
2023-04-23T01:16:45.932Z,0
2023-04-23T01:17:46.877Z,0
2023-04-23T01:18:47.395Z,0
2023-04-23T01:19:48.122Z,0
2023-04-23T01:20:48.833Z,0
2023-04-23T01:21:49.356Z,0
2023-04-23T01:22:50.186Z,0
2023-04-23T01:23:50.463Z,0
2023-04-23T01:24:51.456Z,0
2023-04-23T01:25:51.135Z,0
2023-04-23T01:26:51.633Z,0
2023-04-23T01:27:52.696Z,0
2023-04-23T01:28:53.418Z,0
2023-04-23T01:29:54.480Z,0
2023-04-23T01:30:55.490Z,0
2023-04-23T01:31:55.621Z,0
2023-04-23T01:32:56.335Z,0
2023-04-23T01:33:57.309Z,0
2023-04-23T01:34:58.277Z,0
2023-04-23T01:35:57.996Z,0
2023-04-23T01:36:58.908Z,0
2023-04-23T01:37:58.618Z,0
2023-04-23T01:38:59.307Z,0
2023-04-23T01:39:59.809Z,0
2023-04-23T01:41:00.331Z,0
2023-04-23T01:42:01.018Z,0
2023-04-23T01:43:01.262Z,0
2023-04-23T01:44:01.788Z,0
2023-04-23T01:45:02.109Z,0
2023-04-23T01:46:03.056Z,0
2023-04-23T01:47:05.715Z,0
2023-04-23T01:48:04.819Z,0
2023-04-23T01:49:05.998Z,0
2023-04-23T01:50:05.951Z,0
2023-04-23T01:51:06.847Z,0
2023-04-23T01:52:07.758Z,0
2023-04-23T01:53:07.842Z,0
2023-04-23T01:54:08.802Z,0
2023-04-23T01:55:09.108Z,0
2023-04-23T01:56:10.217Z,0
2023-04-23T01:57:10.744Z,0
2023-04-23T01:58:11.458Z,0
2023-04-23T01:59:11.970Z,0
2023-04-23T02:00:12.897Z,0
2023-04-23T02:01:14.091Z,0
2023-04-23T02:02:14.531Z,0
2023-04-23T02:03:15.204Z,0
2023-04-23T02:04:15.400Z,0
2023-04-23T02:05:14.801Z,0
2023-04-23T02:06:15.492Z,0
2023-04-23T02:07:15.804Z,0
2023-04-23T02:08:16.570Z,0
2023-04-23T02:09:17.506Z,0
2023-04-23T02:10:18.473Z,0
2023-04-23T02:11:18.981Z,0
2023-04-23T02:12:19.273Z,0
2023-04-23T02:13:19.556Z,0
2023-04-23T02:14:20.497Z,0
2023-04-23T02:15:21.048Z,0
2023-04-23T02:16:21.896Z,0
2023-04-23T02:17:22.265Z,0
2023-04-23T02:18:23.017Z,0
2023-04-23T02:19:26.883Z,0
2023-04-23T02:20:24.820Z,0
2023-04-23T02:21:25.321Z,0
2023-04-23T02:22:25.811Z,0
2023-04-23T02:23:26.440Z,0
2023-04-23T02:24:26.946Z,0
2023-04-23T02:25:27.896Z,0
2023-04-23T02:26:28.786Z,0
2023-04-23T02:27:29.099Z,0
2023-04-23T02:28:29.410Z,0
2023-04-23T02:29:30.146Z,0
2023-04-23T02:30:30.458Z,0
2023-04-23T02:31:31.318Z,0
2023-04-23T02:32:31.789Z,0
2023-04-23T02:33:32.472Z,0
2023-04-23T02:34:32.172Z,0
2023-04-23T02:35:32.963Z,0
2023-04-23T02:36:33.903Z,0
2023-04-23T02:37:34.223Z,0
2023-04-23T02:38:34.956Z,0
2023-04-23T02:39:35.462Z,0
2023-04-23T02:40:35.794Z,0
2023-04-23T02:41:36.330Z,0
2023-04-23T02:42:37.262Z,0
2023-04-23T02:43:37.664Z,0
2023-04-23T02:44:38.406Z,0
2023-04-23T02:45:39.202Z,0
2023-04-23T02:46:40.329Z,0
2023-04-23T02:47:39.860Z,0
2023-04-23T02:48:40.152Z,0
2023-04-23T02:49:40.912Z,0
2023-04-23T02:50:41.662Z,0
2023-04-23T02:51:42.343Z,0
2023-04-23T02:52:43.228Z,0
2023-04-23T02:53:43.705Z,0
2023-04-23T02:54:44.539Z,0
2023-04-23T02:55:45.234Z,0
2023-04-23T02:56:45.533Z,0
2023-04-23T02:57:46.464Z,0
2023-04-23T02:58:46.407Z,0
2023-04-23T02:59:46.923Z,0
2023-04-23T03:00:48.032Z,0
2023-04-23T03:01:48.650Z,0
2023-04-23T03:02:50.161Z,0
2023-04-23T03:03:51.648Z,0
2023-04-23T03:04:51.739Z,0
2023-04-23T03:05:51.372Z,0
2023-04-23T03:06:52.263Z,0
2023-04-23T03:07:52.809Z,0
2023-04-23T03:08:53.348Z,0
2023-04-23T03:09:54.253Z,0
2023-04-23T03:10:55.009Z,0
2023-04-23T03:11:55.469Z,0
2023-04-23T03:12:56.175Z,0
2023-04-23T03:13:56.413Z,0
2023-04-23T03:14:57.513Z,0
2023-04-23T03:15:57.645Z,0
2023-04-23T03:16:57.795Z,0
2023-04-23T03:17:58.396Z,0
2023-04-23T03:18:58.270Z,0
2023-04-23T03:19:59.010Z,0
2023-04-23T03:20:59.551Z,0
2023-04-23T03:22:00.227Z,0
2023-04-23T03:23:01.115Z,0
2023-04-23T03:24:01.771Z,0
2023-04-23T03:25:02.535Z,0
2023-04-23T03:26:03.433Z,0
2023-04-23T03:27:04.356Z,0
2023-04-23T03:28:04.858Z,0
2023-04-23T03:29:05.360Z,0
2023-04-23T03:30:05.671Z,0
2023-04-23T03:31:06.710Z,0
2023-04-23T03:32:07.893Z,0
2023-04-23T03:33:07.686Z,0
2023-04-23T03:34:07.978Z,0
2023-04-23T03:35:08.300Z,0
2023-04-23T03:36:08.841Z,0
2023-04-23T03:37:09.519Z,0
2023-04-23T03:38:09.828Z,0
2023-04-23T03:39:10.763Z,0
2023-04-23T03:40:11.479Z,0
2023-04-23T03:41:11.748Z,0
2023-04-23T03:42:12.571Z,0
2023-04-23T03:43:12.898Z,0
2023-04-23T03:44:13.321Z,0
2023-04-23T03:45:13.650Z,0
2023-04-23T03:46:14.569Z,0
2023-04-23T03:47:15.074Z,0
2023-04-23T03:48:16.217Z,0
2023-04-23T03:49:16.721Z,0
2023-04-23T03:50:17.224Z,0
2023-04-23T03:51:18.135Z,0
2023-04-23T03:52:18.631Z,0
2023-04-23T03:53:19.561Z,0
2023-04-23T03:54:19.980Z,0
2023-04-23T03:55:20.071Z,0
2023-04-23T03:56:20.811Z,0
2023-04-23T03:57:21.724Z,0
2023-04-23T03:58:22.411Z,0
2023-04-23T03:59:23.543Z,0
2023-04-23T04:00:24.508Z,0
2023-04-23T04:01:25.213Z,0
2023-04-23T04:02:26.379Z,0
2023-04-23T04:03:27.056Z,0
2023-04-23T04:04:28.604Z,0
2023-04-23T04:05:28.277Z,0
2023-04-23T04:06:27.810Z,0
2023-04-23T04:07:28.516Z,0
2023-04-23T04:08:29.089Z,0
2023-04-23T04:09:29.453Z,0
2023-04-23T04:10:30.060Z,0
2023-04-23T04:11:30.611Z,0
2023-04-23T04:12:31.511Z,0
2023-04-23T04:13:32.055Z,0
2023-04-23T04:14:32.637Z,0
2023-04-23T04:15:33.338Z,0
2023-04-23T04:16:34.062Z,0
2023-04-23T04:17:35.405Z,0
2023-04-23T04:18:34.960Z,0
2023-04-23T04:19:35.860Z,0
2023-04-23T04:20:36.911Z,0
2023-04-23T04:21:36.402Z,0
2023-04-23T04:22:37.548Z,0
2023-04-23T04:23:37.830Z,0
2023-04-23T04:24:42.668Z,0
2023-04-23T04:25:38.458Z,0
2023-04-23T04:26:39.381Z,0
2023-04-23T04:27:39.886Z,0
2023-04-23T04:28:40.189Z,0
2023-04-23T04:29:40.670Z,0
2023-04-23T04:30:41.366Z,0
2023-04-23T04:31:42.378Z,0
2023-04-23T04:32:42.251Z,0
2023-04-23T04:33:42.800Z,0
2023-04-23T04:34:55.543Z,0
2023-04-23T04:36:44.557Z,0
2023-04-23T04:37:45.254Z,0
2023-04-23T04:38:46.403Z,0
2023-04-23T04:39:46.538Z,0
2023-04-23T04:40:46.022Z,0
2023-04-23T04:41:46.936Z,0
2023-04-23T04:42:47.836Z,0
2023-04-23T04:43:48.369Z,0
2023-04-23T04:44:48.708Z,0
2023-04-23T04:45:49.628Z,0
2023-04-23T04:46:50.574Z,0
2023-04-23T04:47:51.343Z,0
2023-04-23T04:48:52.054Z,0
2023-04-23T04:49:52.761Z,0
2023-04-23T04:50:53.274Z,0
2023-04-23T04:51:53.608Z,0
2023-04-23T04:52:54.123Z,0
2023-04-23T04:53:54.610Z,0
2023-04-23T04:54:56.286Z,0
2023-04-23T04:55:55.804Z,0
2023-04-23T04:56:56.089Z,0
2023-04-23T04:57:56.882Z,0
2023-04-23T04:58:57.406Z,0
2023-04-23T04:59:59.042Z,0
2023-04-23T05:00:58.736Z,5.63
2023-04-23T05:01:59.822Z,5.63
2023-04-23T05:03:00.269Z,5.63
2023-04-23T05:04:01.086Z,5.63
2023-04-23T05:05:00.953Z,5.63
2023-04-23T05:06:01.895Z,5.63
2023-04-23T05:07:02.705Z,5.63
2023-04-23T05:08:03.593Z,5.63
2023-04-23T05:09:04.421Z,5.63
2023-04-23T05:10:05.134Z,11.25
2023-04-23T05:11:05.443Z,11.25
2023-04-23T05:12:05.709Z,11.25
2023-04-23T05:13:06.197Z,5.63
2023-04-23T05:14:06.517Z,5.63
2023-04-23T05:15:08.475Z,5.63
2023-04-23T05:16:08.271Z,5.63
2023-04-23T05:17:09.234Z,11.25
2023-04-23T05:18:10.499Z,11.25
2023-04-23T05:19:10.203Z,11.25
2023-04-23T05:20:11.112Z,11.25
2023-04-23T05:21:11.046Z,11.25
2023-04-23T05:22:11.762Z,11.25
2023-04-23T05:23:12.312Z,11.25
2023-04-23T05:24:13.165Z,11.25
2023-04-23T05:25:14.153Z,11.25
2023-04-23T05:26:14.841Z,11.25
2023-04-23T05:27:14.962Z,11.25
2023-04-23T05:28:15.090Z,11.25
2023-04-23T05:29:15.600Z,11.25
2023-04-23T05:30:16.319Z,11.25
2023-04-23T05:31:17.028Z,11.25
2023-04-23T05:32:18.298Z,11.25
2023-04-23T05:33:18.879Z,11.25
2023-04-23T05:34:19.615Z,11.25
2023-04-23T05:35:20.290Z,11.25
2023-04-23T05:36:21.437Z,11.25
2023-04-23T05:37:21.534Z,11.25
2023-04-23T05:38:21.276Z,11.25
2023-04-23T05:39:21.386Z,11.25
2023-04-23T05:40:21.933Z,11.25
2023-04-23T05:41:22.715Z,11.25
2023-04-23T05:42:23.225Z,11.25
2023-04-23T05:43:23.940Z,11.25
2023-04-23T05:44:24.444Z,11.25
2023-04-23T05:45:25.490Z,11.25
2023-04-23T05:46:25.585Z,11.25
2023-04-23T05:47:26.191Z,16.88
2023-04-23T05:48:26.896Z,16.88
2023-04-23T05:49:27.638Z,16.88
2023-04-23T05:50:28.130Z,16.88
2023-04-23T05:51:28.865Z,16.88
2023-04-23T05:52:29.450Z,16.88
2023-04-23T05:53:29.943Z,16.88
2023-04-23T05:54:30.429Z,16.88
2023-04-23T05:55:30.959Z,16.88
2023-04-23T05:56:32.331Z,16.88
2023-04-23T05:57:31.432Z,16.88
2023-04-23T05:58:32.120Z,16.88
2023-04-23T05:59:33.010Z,16.88
2023-04-23T06:00:34.137Z,16.88
2023-04-23T06:01:33.895Z,22.5
2023-04-23T06:02:36.282Z,22.5
2023-04-23T06:03:36.102Z,22.5
2023-04-23T06:04:37.791Z,22.5
2023-04-23T06:06:37.395Z,28.13
2023-04-23T06:07:38.098Z,28.13
2023-04-23T06:08:40.771Z,28.13
2023-04-23T06:09:39.287Z,33.75
2023-04-23T06:10:40.068Z,33.75
2023-04-23T06:11:40.369Z,33.75
2023-04-23T06:12:40.661Z,33.75
2023-04-23T06:13:43.610Z,28.13
2023-04-23T06:14:41.540Z,28.13
2023-04-23T06:15:42.479Z,28.13
2023-04-23T06:16:43.294Z,33.75
2023-04-23T06:17:44.039Z,33.75
2023-04-23T06:18:44.812Z,33.75
2023-04-23T06:19:45.691Z,33.75
2023-04-23T06:20:46.195Z,39.38
2023-04-23T06:21:46.927Z,33.75
2023-04-23T06:22:47.235Z,33.75
2023-04-23T06:23:47.711Z,33.75
2023-04-23T06:24:48.549Z,33.75
2023-04-23T06:25:49.191Z,33.75
2023-04-23T06:26:49.502Z,33.75
2023-04-23T06:27:50.248Z,33.75
2023-04-23T06:28:51.134Z,33.75
2023-04-23T06:29:51.629Z,39.38
2023-04-23T06:30:51.722Z,39.38
2023-04-23T06:31:53.852Z,39.38
2023-04-23T06:32:53.847Z,39.38
2023-04-23T06:33:54.438Z,39.38
2023-04-23T06:35:13.952Z,39.38
2023-04-23T06:37:01.722Z,39.38
2023-04-23T06:38:02.412Z,39.38
2023-04-23T06:39:03.319Z,45
2023-04-23T06:40:03.799Z,45
2023-04-23T06:41:04.557Z,45
2023-04-23T06:42:05.248Z,45
2023-04-23T06:43:06.043Z,50.63
2023-04-23T06:44:06.558Z,50.63
2023-04-23T06:45:08.155Z,50.63
2023-04-23T06:47:08.849Z,56.25
2023-04-23T06:48:08.650Z,56.25
2023-04-23T06:49:09.195Z,56.25
2023-04-23T06:50:09.502Z,61.88
2023-04-23T06:51:10.393Z,61.88
2023-04-23T06:52:13.906Z,61.88
2023-04-23T06:53:11.590Z,61.88
2023-04-23T06:54:12.317Z,56.25
2023-04-23T06:55:12.816Z,56.25
2023-04-23T06:56:14.072Z,56.25
2023-04-23T06:57:14.780Z,56.25
2023-04-23T06:58:16.252Z,56.25
2023-04-23T06:59:16.382Z,56.25
2023-04-23T07:00:17.165Z,56.25
2023-04-23T07:01:17.899Z,56.25
2023-04-23T07:02:18.866Z,56.25
2023-04-23T07:03:20.689Z,56.25
2023-04-23T07:04:20.850Z,56.25
2023-04-23T07:05:21.611Z,56.25
2023-04-23T07:06:22.243Z,56.25
2023-04-23T07:07:23.082Z,50.63
2023-04-23T07:08:23.804Z,50.63
2023-04-23T07:09:24.494Z,50.63
2023-04-23T07:10:28.692Z,56.25
2023-04-23T07:11:25.612Z,56.25
2023-04-23T07:12:26.314Z,56.25
2023-04-23T07:13:26.839Z,61.88
2023-04-23T07:14:27.334Z,61.88
2023-04-23T07:15:28.290Z,61.88
2023-04-23T07:16:33.012Z,61.88
2023-04-23T07:17:29.009Z,56.25
2023-04-23T07:18:29.148Z,56.25
2023-04-23T07:19:29.447Z,56.25
2023-04-23T07:20:30.174Z,50.63
2023-04-23T07:21:30.868Z,50.63
2023-04-23T07:22:31.391Z,50.63
2023-04-23T07:23:31.731Z,50.63
2023-04-23T07:24:32.427Z,50.63
2023-04-23T07:25:32.909Z,45
2023-04-23T07:26:33.710Z,45
2023-04-23T07:27:34.577Z,50.63
2023-04-23T07:28:35.072Z,50.63
2023-04-23T07:29:35.552Z,45
2023-04-23T07:30:36.209Z,45
2023-04-23T07:31:37.334Z,39.38
2023-04-23T07:32:37.409Z,39.38
2023-04-23T07:33:38.368Z,39.38
2023-04-23T07:34:41.798Z,39.38
2023-04-23T07:35:39.456Z,45
2023-04-23T07:36:40.215Z,50.63
2023-04-23T07:37:40.975Z,50.63
2023-04-23T07:38:41.484Z,56.25
2023-04-23T07:39:43.894Z,56.25
2023-04-23T07:40:43.123Z,56.25
2023-04-23T07:41:43.944Z,61.88
2023-04-23T07:42:44.718Z,61.88
2023-04-23T07:43:45.468Z,67.5
2023-04-23T07:44:45.948Z,73.13
2023-04-23T07:45:46.719Z,78.75
2023-04-23T07:46:47.557Z,84.38
2023-04-23T07:47:48.395Z,84.38
2023-04-23T07:48:48.958Z,73.13
2023-04-23T07:49:50.047Z,78.75
2023-04-23T07:50:50.767Z,67.5
2023-04-23T07:51:51.113Z,67.5
2023-04-23T07:52:52.288Z,67.5
2023-04-23T07:53:53.121Z,73.13
2023-04-23T07:54:54.044Z,73.13
2023-04-23T07:55:54.825Z,67.5
2023-04-23T07:56:55.665Z,67.5
2023-04-23T07:57:55.581Z,61.88
2023-04-23T07:58:56.135Z,56.25
2023-04-23T07:59:56.875Z,56.25
2023-04-23T08:00:57.177Z,50.63
2023-04-23T08:01:57.670Z,50.63
2023-04-23T08:02:59.448Z,45
2023-04-23T08:04:04.447Z,45
2023-04-23T08:05:01.346Z,45
2023-04-23T08:06:01.488Z,45
2023-04-23T08:07:01.863Z,50.63
2023-04-23T08:08:02.804Z,56.25
2023-04-23T08:09:03.563Z,61.88
2023-04-23T08:10:04.714Z,67.5
2023-04-23T08:11:04.860Z,61.88
2023-04-23T08:12:04.670Z,61.88
2023-04-23T08:13:05.397Z,67.5
2023-04-23T08:14:05.913Z,67.5
2023-04-23T08:15:06.611Z,73.13
2023-04-23T08:16:07.751Z,73.13
2023-04-23T08:17:08.085Z,67.5
2023-04-23T08:18:09.204Z,73.13
2023-04-23T08:19:20.607Z,78.75
2023-04-23T08:21:09.449Z,101.25
2023-04-23T08:22:10.189Z,106.88
2023-04-23T08:23:11.527Z,106.88
2023-04-23T08:24:11.476Z,106.88
2023-04-23T08:25:12.403Z,112.5
2023-04-23T08:26:12.701Z,118.13
2023-04-23T08:27:13.529Z,135
2023-04-23T08:28:14.472Z,140.63
2023-04-23T08:29:16.955Z,140.63
2023-04-23T08:30:15.452Z,140.63
2023-04-23T08:31:37.474Z,140.63
2023-04-23T08:33:17.485Z,140.63
2023-04-23T08:34:16.804Z,140.63
2023-04-23T08:35:17.543Z,135
2023-04-23T08:36:18.465Z,112.5
2023-04-23T08:37:41.002Z,106.88
2023-04-23T08:38:19.662Z,106.88
2023-04-23T08:39:20.140Z,106.88
2023-04-23T08:40:21.274Z,106.88
2023-04-23T08:41:22.215Z,106.88
2023-04-23T08:42:22.862Z,112.5
2023-04-23T08:43:23.365Z,118.13
2023-04-23T08:44:23.694Z,123.75
2023-04-23T08:45:24.298Z,118.13
2023-04-23T08:46:24.939Z,123.75
2023-04-23T08:47:25.235Z,123.75
2023-04-23T08:48:26.002Z,135
2023-04-23T08:49:26.748Z,146.25
2023-04-23T08:50:27.506Z,146.25
2023-04-23T08:51:27.791Z,146.25
2023-04-23T08:52:28.478Z,146.25
2023-04-23T08:53:29.607Z,146.25
2023-04-23T08:54:30.141Z,146.25
2023-04-23T08:55:31.260Z,151.88
2023-04-23T08:56:31.579Z,151.88
2023-04-23T08:57:32.307Z,151.88
2023-04-23T08:58:33.210Z,157.5
2023-04-23T08:59:34.025Z,157.5
2023-04-23T09:00:34.818Z,174.38
2023-04-23T09:01:35.927Z,174.38
2023-04-23T09:02:37.132Z,174.38
2023-04-23T09:03:38.328Z,168.75
2023-04-23T09:04:38.127Z,168.75
2023-04-23T09:05:38.429Z,174.38
2023-04-23T09:06:39.319Z,174.38
2023-04-23T09:07:40.348Z,157.5
2023-04-23T09:08:40.577Z,140.63
2023-04-23T09:09:41.525Z,135
2023-04-23T09:10:41.467Z,129.38
2023-04-23T09:11:42.162Z,123.75
2023-04-23T09:12:42.697Z,123.75
2023-04-23T09:13:43.189Z,129.38
2023-04-23T09:14:43.974Z,129.38
2023-04-23T09:15:44.997Z,135
2023-04-23T09:16:45.879Z,140.63
2023-04-23T09:17:46.583Z,135
2023-04-23T09:18:46.326Z,135
2023-04-23T09:19:47.034Z,140.63
2023-04-23T09:20:47.749Z,146.25
2023-04-23T09:21:48.696Z,151.88
2023-04-23T09:22:52.088Z,157.5
2023-04-23T09:23:49.802Z,168.75
2023-04-23T09:24:51.313Z,174.38
2023-04-23T09:25:51.404Z,180
2023-04-23T09:26:52.212Z,180
2023-04-23T09:27:52.575Z,202.5
2023-04-23T09:28:55.479Z,191.25
2023-04-23T09:29:54.514Z,180
2023-04-23T09:30:54.221Z,174.38
2023-04-23T09:31:55.358Z,185.63
2023-04-23T09:32:55.533Z,191.25
2023-04-23T09:33:55.560Z,202.5
2023-04-23T09:34:56.515Z,219.38
2023-04-23T09:35:57.229Z,236.25
2023-04-23T09:36:57.546Z,253.13
2023-04-23T09:37:59.497Z,264.38
2023-04-23T09:39:00.221Z,331.88
2023-04-23T09:40:00.810Z,354.38
2023-04-23T09:41:01.702Z,298.13
2023-04-23T09:42:02.215Z,331.88
2023-04-23T09:43:02.867Z,326.25
2023-04-23T09:44:03.574Z,511.88
2023-04-23T09:45:04.148Z,523.13
2023-04-23T09:46:05.062Z,371.25
2023-04-23T09:47:05.381Z,326.25
2023-04-23T09:48:06.722Z,326.25
2023-04-23T09:49:07.752Z,562.5
2023-04-23T09:50:07.494Z,590.63
2023-04-23T09:51:08.239Z,573.75
2023-04-23T09:52:08.980Z,466.88
2023-04-23T09:53:09.983Z,523.13
2023-04-23T09:54:10.552Z,343.13
2023-04-23T09:55:11.327Z,326.25
2023-04-23T09:56:12.212Z,281.25
2023-04-23T09:57:12.956Z,258.75
2023-04-23T09:58:13.274Z,264.38
2023-04-23T09:59:14.016Z,298.13
2023-04-23T10:00:30.638Z,360
2023-04-23T10:02:17.045Z,405
2023-04-23T10:03:17.723Z,523.13
2023-04-23T10:04:18.441Z,343.13
2023-04-23T10:07:20.346Z,483.75
2023-04-23T10:09:38.819Z,315
2023-04-23T10:10:57.226Z,315
2023-04-23T10:11:39.660Z,275.63
2023-04-23T10:13:05.880Z,281.25
2023-04-23T10:14:42.629Z,247.5
2023-04-23T10:15:43.859Z,241.88
2023-04-23T10:17:00.667Z,337.5
2023-04-23T10:17:45.398Z,258.75
2023-04-23T10:18:46.400Z,264.38
2023-04-23T10:19:47.509Z,253.13
2023-04-23T10:20:47.836Z,270
2023-04-23T10:22:25.216Z,281.25
2023-04-23T10:23:48.304Z,298.13
2023-04-23T10:24:49.596Z,360
2023-04-23T10:25:49.374Z,433.13
2023-04-23T10:26:50.277Z,331.88
2023-04-23T10:28:08.646Z,405
2023-04-23T10:29:56.727Z,675
2023-04-23T10:30:57.579Z,776.25
2023-04-23T10:31:58.683Z,618.75
2023-04-23T10:33:00.516Z,523.13
2023-04-23T10:34:14.591Z,787.5
2023-04-23T10:36:04.821Z,382.5
2023-04-23T10:37:02.099Z,523.13
2023-04-23T10:38:02.559Z,511.88
2023-04-23T10:40:04.796Z,573.75
2023-04-23T10:41:05.603Z,697.5
2023-04-23T10:42:06.295Z,455.63
2023-04-23T10:43:07.046Z,686.25
2023-04-23T10:44:07.439Z,686.25
2023-04-23T10:45:35.817Z,686.25
2023-04-23T10:46:08.285Z,680.63
2023-04-23T10:47:09.049Z,388.13
2023-04-23T10:48:09.847Z,281.25
2023-04-23T10:49:10.463Z,675
2023-04-23T10:50:11.133Z,641.25
2023-04-23T10:52:18.392Z,641.25
2023-04-23T10:53:37.100Z,624.38
2023-04-23T10:54:37.852Z,613.13
2023-04-23T10:55:38.600Z,613.13
2023-04-23T10:56:39.345Z,596.25
2023-04-23T10:57:40.282Z,579.38
2023-04-23T10:58:40.598Z,613.13
2023-04-23T10:59:42.194Z,579.38
2023-04-23T11:00:41.915Z,568.13
2023-04-23T11:01:42.779Z,528.75
2023-04-23T11:02:44.472Z,230.63
2023-04-23T11:03:49.392Z,253.13
2023-04-23T11:04:46.231Z,540
2023-04-23T11:05:45.151Z,534.38
2023-04-23T11:06:46.305Z,511.88
2023-04-23T11:07:47.060Z,551.25
2023-04-23T11:08:47.835Z,438.75
2023-04-23T11:09:48.587Z,461.25
2023-04-23T11:10:48.599Z,253.13
2023-04-23T11:11:48.933Z,253.13
2023-04-23T11:12:49.692Z,309.38
2023-04-23T11:13:50.612Z,585
2023-04-23T11:14:51.415Z,630
2023-04-23T11:15:52.249Z,641.25
2023-04-23T11:16:53.318Z,646.88
2023-04-23T11:17:53.183Z,652.5
2023-04-23T11:18:53.920Z,270
2023-04-23T11:19:55.041Z,545.63
2023-04-23T11:20:55.366Z,573.75
2023-04-23T11:21:56.098Z,264.38
2023-04-23T11:22:56.844Z,253.13
2023-04-23T11:23:57.328Z,568.13
2023-04-23T11:25:01.818Z,315
2023-04-23T11:25:58.577Z,365.63
2023-04-23T11:26:59.132Z,517.5
2023-04-23T11:28:00.073Z,646.88
2023-04-23T11:29:00.798Z,258.75
2023-04-23T11:30:04.041Z,230.63
2023-04-23T11:31:01.756Z,281.25
2023-04-23T11:32:17.799Z,613.13
2023-04-23T11:34:03.437Z,208.13
2023-04-23T11:35:04.056Z,208.13
2023-04-23T11:36:05.195Z,225
2023-04-23T11:37:05.391Z,236.25
2023-04-23T11:38:05.337Z,225
2023-04-23T11:39:06.032Z,247.5
2023-04-23T11:40:06.426Z,264.38
2023-04-23T11:41:07.162Z,371.25
2023-04-23T11:42:07.891Z,253.13
2023-04-23T11:43:08.692Z,230.63
2023-04-23T11:44:09.602Z,225
2023-04-23T11:45:10.358Z,230.63
2023-04-23T11:46:11.525Z,247.5
2023-04-23T11:47:14.250Z,253.13
2023-04-23T11:48:12.480Z,258.75
2023-04-23T11:49:12.193Z,258.75
2023-04-23T11:50:12.974Z,258.75
2023-04-23T11:51:13.928Z,517.5
2023-04-23T11:52:14.477Z,585
2023-04-23T11:53:15.203Z,225
2023-04-23T11:54:16.122Z,196.88
2023-04-23T11:55:16.856Z,180
2023-04-23T11:56:17.590Z,180
2023-04-23T11:57:18.525Z,213.75
2023-04-23T11:58:19.264Z,275.63
2023-04-23T11:59:19.981Z,185.63
2023-04-23T12:00:20.539Z,185.63
2023-04-23T12:01:21.036Z,253.13
2023-04-23T12:02:22.090Z,517.5
2023-04-23T12:03:23.531Z,354.38
2023-04-23T12:04:25.059Z,270
2023-04-23T12:05:24.190Z,241.88
2023-04-23T12:06:24.602Z,247.5
2023-04-23T12:07:39.818Z,191.25
2023-04-23T12:09:26.914Z,174.38
2023-04-23T12:10:27.480Z,174.38
2023-04-23T12:11:28.442Z,168.75
2023-04-23T12:12:28.573Z,168.75
2023-04-23T12:13:29.578Z,168.75
2023-04-23T12:14:30.883Z,174.38
2023-04-23T12:15:31.045Z,191.25
2023-04-23T12:16:32.228Z,202.5
2023-04-23T12:17:32.697Z,230.63
2023-04-23T12:18:33.632Z,275.63
2023-04-23T12:19:34.603Z,461.25
2023-04-23T12:20:35.177Z,450
2023-04-23T12:21:37.142Z,478.13
2023-04-23T12:22:37.105Z,466.88
2023-04-23T12:23:37.629Z,461.25
2023-04-23T12:24:38.339Z,472.5
2023-04-23T12:25:39.266Z,461.25
2023-04-23T12:26:40.399Z,438.75
2023-04-23T12:27:40.179Z,444.38
2023-04-23T12:28:40.492Z,354.38
2023-04-23T12:29:41.181Z,365.63
2023-04-23T12:30:42.198Z,376.88
2023-04-23T12:31:43.244Z,433.13
2023-04-23T12:32:43.221Z,438.75
2023-04-23T12:33:44.021Z,331.88
2023-04-23T12:34:45.127Z,286.88
2023-04-23T12:35:44.605Z,399.38
2023-04-23T12:36:45.542Z,208.13
2023-04-23T12:37:46.265Z,191.25
2023-04-23T12:38:46.558Z,191.25
2023-04-23T12:39:47.628Z,371.25
2023-04-23T12:40:47.933Z,281.25
2023-04-23T12:41:49.967Z,286.88
2023-04-23T12:42:49.778Z,320.63
2023-04-23T12:43:50.474Z,292.5
2023-04-23T12:44:51.069Z,286.88
2023-04-23T12:45:52.014Z,253.13
2023-04-23T12:46:54.552Z,202.5
2023-04-23T12:47:53.287Z,180
2023-04-23T12:48:54.039Z,180
2023-04-23T12:49:55.927Z,157.5
2023-04-23T12:50:55.292Z,151.88
2023-04-23T12:51:56.042Z,157.5
2023-04-23T12:52:56.758Z,163.13
2023-04-23T12:53:57.495Z,180
2023-04-23T12:54:58.046Z,163.13
2023-04-23T12:55:59.151Z,146.25
2023-04-23T12:56:59.691Z,151.88
2023-04-23T12:58:00.237Z,196.88
2023-04-23T12:59:00.739Z,180
2023-04-23T13:00:01.763Z,157.5
2023-04-23T13:01:01.674Z,157.5
2023-04-23T13:02:03.654Z,157.5
2023-04-23T13:03:03.544Z,163.13
2023-04-23T13:04:04.133Z,180
2023-04-23T13:05:04.244Z,202.5
2023-04-23T13:06:04.742Z,191.25
2023-04-23T13:07:05.099Z,208.13
2023-04-23T13:08:05.846Z,241.88
2023-04-23T13:09:06.337Z,236.25
2023-04-23T13:10:06.872Z,196.88
2023-04-23T13:11:07.306Z,196.88
2023-04-23T13:12:08.238Z,191.25
2023-04-23T13:13:08.790Z,196.88
2023-04-23T13:14:09.701Z,202.5
2023-04-23T13:15:10.635Z,253.13
2023-04-23T13:16:11.943Z,281.25
2023-04-23T13:17:11.478Z,303.75
2023-04-23T13:18:12.160Z,270
2023-04-23T13:19:12.685Z,213.75
2023-04-23T13:20:13.199Z,191.25
2023-04-23T13:21:14.018Z,202.5
2023-04-23T13:22:14.968Z,230.63
2023-04-23T13:23:15.542Z,230.63
2023-04-23T13:24:16.328Z,219.38
2023-04-23T13:25:16.822Z,343.13
2023-04-23T13:26:17.530Z,208.13
2023-04-23T13:27:18.056Z,191.25
2023-04-23T13:28:18.590Z,202.5
2023-04-23T13:29:19.526Z,225
2023-04-23T13:30:19.860Z,219.38
2023-04-23T13:31:20.800Z,219.38
2023-04-23T13:32:22.687Z,191.25
2023-04-23T13:33:22.484Z,146.25
2023-04-23T13:34:22.594Z,118.13
2023-04-23T13:35:23.512Z,106.88
2023-04-23T13:36:24.468Z,101.25
2023-04-23T13:37:25.286Z,101.25
2023-04-23T13:38:26.035Z,101.25
2023-04-23T13:39:26.345Z,95.63
2023-04-23T13:40:27.067Z,90
2023-04-23T13:41:27.377Z,73.13
2023-04-23T13:42:27.913Z,67.5
2023-04-23T13:43:29.141Z,61.88
2023-04-23T13:44:28.619Z,56.25
2023-04-23T13:45:30.985Z,50.63
2023-04-23T13:46:29.868Z,45
2023-04-23T13:47:29.825Z,39.38
2023-04-23T13:48:30.545Z,39.38
2023-04-23T13:49:31.435Z,33.75
2023-04-23T13:50:32.344Z,33.75
2023-04-23T13:51:49.333Z,28.13
2023-04-23T13:53:33.323Z,22.5
2023-04-23T13:54:33.822Z,22.5
2023-04-23T13:55:34.513Z,22.5
2023-04-23T13:56:35.408Z,22.5
2023-04-23T13:57:36.209Z,22.5
2023-04-23T13:58:37.125Z,22.5